<?xml version="1.0" encoding="UTF-8" standalone="no" ?>
<gpx xmlns="http://www.topografix.com/GPX/1/1" xmlns:xsi="http://www.w3.org/2001/XMLSchema-instance" xsi:schemaLocation="http://www.topografix.com/GPX/1/1 http://www.topografix.com/GPX/1/1/gpx.xsd" version="1.1" creator="VisuGPX - https://www.visugpx.com">
  <metadata>
    <name>LORGUES DOMAINE DE L\'ESTELLO</name>
    <desc><![CDATA[Petit circuit autour du domaine de l\'Estello en passant par Vigne Aubières]]></desc>
  </metadata>
  <trk>
    <name><![CDATA[Tracé actuel: 29 OCT 2015 08:25]]></name>
    <trkseg>
      <trkpt lat="43.48219" lon="6.34358">
        <ele>151.54</ele>
        <time>2015-10-29T07:25:01Z</time>
      </trkpt>
      <trkpt lat="43.48216" lon="6.34337">
        <ele>152.03</ele>
        <time>2015-10-29T07:25:29Z</time>
      </trkpt>
      <trkpt lat="43.48218" lon="6.34334">
        <ele>152.99</ele>
        <time>2015-10-29T07:25:47Z</time>
      </trkpt>
      <trkpt lat="43.48216" lon="6.34331">
        <ele>154.43</ele>
        <time>2015-10-29T07:25:51Z</time>
      </trkpt>
      <trkpt lat="43.48213" lon="6.34328">
        <ele>154.91</ele>
        <time>2015-10-29T07:25:54Z</time>
      </trkpt>
      <trkpt lat="43.48203" lon="6.34313">
        <ele>158.75</ele>
        <time>2015-10-29T07:26:07Z</time>
      </trkpt>
      <trkpt lat="43.48203" lon="6.34313">
        <ele>158.75</ele>
        <time>2015-10-29T07:26:08Z</time>
      </trkpt>
      <trkpt lat="43.48198" lon="6.34304">
        <ele>161.64</ele>
        <time>2015-10-29T07:26:20Z</time>
      </trkpt>
      <trkpt lat="43.48195" lon="6.34293">
        <ele>164.52</ele>
        <time>2015-10-29T07:26:31Z</time>
      </trkpt>
      <trkpt lat="43.48194" lon="6.34292">
        <ele>165</ele>
        <time>2015-10-29T07:26:33Z</time>
      </trkpt>
      <trkpt lat="43.48192" lon="6.3429">
        <ele>165.48</ele>
        <time>2015-10-29T07:26:35Z</time>
      </trkpt>
      <trkpt lat="43.48181" lon="6.34277">
        <ele>168.37</ele>
        <time>2015-10-29T07:26:49Z</time>
      </trkpt>
      <trkpt lat="43.4817" lon="6.34257">
        <ele>171.25</ele>
        <time>2015-10-29T07:27:06Z</time>
      </trkpt>
      <trkpt lat="43.48169" lon="6.34254">
        <ele>171.73</ele>
        <time>2015-10-29T07:27:08Z</time>
      </trkpt>
      <trkpt lat="43.48168" lon="6.34252">
        <ele>172.21</ele>
        <time>2015-10-29T07:27:10Z</time>
      </trkpt>
      <trkpt lat="43.48159" lon="6.34236">
        <ele>174.62</ele>
        <time>2015-10-29T07:27:30Z</time>
      </trkpt>
      <trkpt lat="43.48153" lon="6.3423">
        <ele>175.58</ele>
        <time>2015-10-29T07:27:36Z</time>
      </trkpt>
      <trkpt lat="43.48142" lon="6.34215">
        <ele>177.5</ele>
        <time>2015-10-29T07:27:49Z</time>
      </trkpt>
      <trkpt lat="43.48133" lon="6.34201">
        <ele>179.9</ele>
        <time>2015-10-29T07:28:00Z</time>
      </trkpt>
      <trkpt lat="43.48131" lon="6.34198">
        <ele>180.38</ele>
        <time>2015-10-29T07:28:02Z</time>
      </trkpt>
      <trkpt lat="43.48125" lon="6.34186">
        <ele>181.83</ele>
        <time>2015-10-29T07:28:09Z</time>
      </trkpt>
      <trkpt lat="43.48123" lon="6.34182">
        <ele>182.79</ele>
        <time>2015-10-29T07:28:12Z</time>
      </trkpt>
      <trkpt lat="43.48109" lon="6.34173">
        <ele>185.67</ele>
        <time>2015-10-29T07:28:25Z</time>
      </trkpt>
      <trkpt lat="43.48096" lon="6.34166">
        <ele>189.52</ele>
        <time>2015-10-29T07:28:36Z</time>
      </trkpt>
      <trkpt lat="43.48086" lon="6.34163">
        <ele>191.44</ele>
        <time>2015-10-29T07:28:49Z</time>
      </trkpt>
      <trkpt lat="43.48075" lon="6.34161">
        <ele>192.88</ele>
        <time>2015-10-29T07:28:56Z</time>
      </trkpt>
      <trkpt lat="43.48068" lon="6.34161">
        <ele>193.36</ele>
        <time>2015-10-29T07:29:00Z</time>
      </trkpt>
      <trkpt lat="43.48054" lon="6.34154">
        <ele>194.8</ele>
        <time>2015-10-29T07:29:10Z</time>
      </trkpt>
      <trkpt lat="43.48056" lon="6.34151">
        <ele>196.25</ele>
        <time>2015-10-29T07:29:22Z</time>
      </trkpt>
      <trkpt lat="43.48059" lon="6.3415">
        <ele>197.69</ele>
        <time>2015-10-29T07:29:32Z</time>
      </trkpt>
      <trkpt lat="43.48058" lon="6.34146">
        <ele>198.17</ele>
        <time>2015-10-29T07:29:35Z</time>
      </trkpt>
      <trkpt lat="43.48055" lon="6.34137">
        <ele>198.65</ele>
        <time>2015-10-29T07:29:42Z</time>
      </trkpt>
      <trkpt lat="43.48054" lon="6.34135">
        <ele>199.13</ele>
        <time>2015-10-29T07:29:44Z</time>
      </trkpt>
      <trkpt lat="43.48049" lon="6.34131">
        <ele>199.61</ele>
        <time>2015-10-29T07:30:01Z</time>
      </trkpt>
      <trkpt lat="43.48046" lon="6.34131">
        <ele>200.09</ele>
        <time>2015-10-29T07:30:21Z</time>
      </trkpt>
      <trkpt lat="43.48046" lon="6.34126">
        <ele>201.53</ele>
        <time>2015-10-29T07:30:37Z</time>
      </trkpt>
      <trkpt lat="43.48045" lon="6.34126">
        <ele>200.57</ele>
        <time>2015-10-29T07:30:40Z</time>
      </trkpt>
      <trkpt lat="43.48039" lon="6.34119">
        <ele>200.57</ele>
        <time>2015-10-29T07:30:53Z</time>
      </trkpt>
      <trkpt lat="43.48033" lon="6.34111">
        <ele>200.57</ele>
        <time>2015-10-29T07:31:06Z</time>
      </trkpt>
      <trkpt lat="43.48026" lon="6.34102">
        <ele>200.09</ele>
        <time>2015-10-29T07:31:18Z</time>
      </trkpt>
      <trkpt lat="43.48022" lon="6.34094">
        <ele>200.09</ele>
        <time>2015-10-29T07:31:30Z</time>
      </trkpt>
      <trkpt lat="43.48013" lon="6.34085">
        <ele>199.61</ele>
        <time>2015-10-29T07:31:36Z</time>
      </trkpt>
      <trkpt lat="43.47997" lon="6.34071">
        <ele>199.13</ele>
        <time>2015-10-29T07:31:52Z</time>
      </trkpt>
      <trkpt lat="43.47995" lon="6.34063">
        <ele>198.17</ele>
        <time>2015-10-29T07:32:06Z</time>
      </trkpt>
      <trkpt lat="43.47987" lon="6.34053">
        <ele>197.21</ele>
        <time>2015-10-29T07:32:21Z</time>
      </trkpt>
      <trkpt lat="43.47984" lon="6.34045">
        <ele>196.73</ele>
        <time>2015-10-29T07:32:28Z</time>
      </trkpt>
      <trkpt lat="43.47977" lon="6.34031">
        <ele>196.73</ele>
        <time>2015-10-29T07:32:37Z</time>
      </trkpt>
      <trkpt lat="43.47973" lon="6.3402">
        <ele>195.28</ele>
        <time>2015-10-29T07:32:44Z</time>
      </trkpt>
      <trkpt lat="43.47972" lon="6.34017">
        <ele>195.28</ele>
        <time>2015-10-29T07:32:46Z</time>
      </trkpt>
      <trkpt lat="43.47959" lon="6.33999">
        <ele>193.36</ele>
        <time>2015-10-29T07:33:02Z</time>
      </trkpt>
      <trkpt lat="43.47946" lon="6.33987">
        <ele>191.92</ele>
        <time>2015-10-29T07:33:18Z</time>
      </trkpt>
      <trkpt lat="43.47941" lon="6.33985">
        <ele>191.92</ele>
        <time>2015-10-29T07:33:34Z</time>
      </trkpt>
      <trkpt lat="43.47937" lon="6.33983">
        <ele>190.48</ele>
        <time>2015-10-29T07:33:51Z</time>
      </trkpt>
      <trkpt lat="43.47934" lon="6.33978">
        <ele>189.04</ele>
        <time>2015-10-29T07:34:07Z</time>
      </trkpt>
      <trkpt lat="43.47932" lon="6.33977">
        <ele>188.56</ele>
        <time>2015-10-29T07:34:21Z</time>
      </trkpt>
      <trkpt lat="43.47928" lon="6.33977">
        <ele>186.15</ele>
        <time>2015-10-29T07:34:34Z</time>
      </trkpt>
      <trkpt lat="43.47922" lon="6.33974">
        <ele>183.75</ele>
        <time>2015-10-29T07:34:50Z</time>
      </trkpt>
      <trkpt lat="43.4792" lon="6.33975">
        <ele>183.27</ele>
        <time>2015-10-29T07:34:53Z</time>
      </trkpt>
      <trkpt lat="43.47916" lon="6.33975">
        <ele>182.79</ele>
        <time>2015-10-29T07:34:55Z</time>
      </trkpt>
      <trkpt lat="43.479" lon="6.3397">
        <ele>180.87</ele>
        <time>2015-10-29T07:35:05Z</time>
      </trkpt>
      <trkpt lat="43.47886" lon="6.3397">
        <ele>178.46</ele>
        <time>2015-10-29T07:35:22Z</time>
      </trkpt>
      <trkpt lat="43.47865" lon="6.33964">
        <ele>177.02</ele>
        <time>2015-10-29T07:35:35Z</time>
      </trkpt>
      <trkpt lat="43.47854" lon="6.33962">
        <ele>176.54</ele>
        <time>2015-10-29T07:35:42Z</time>
      </trkpt>
      <trkpt lat="43.47833" lon="6.33951">
        <ele>176.54</ele>
        <time>2015-10-29T07:35:56Z</time>
      </trkpt>
      <trkpt lat="43.47815" lon="6.33946">
        <ele>174.14</ele>
        <time>2015-10-29T07:36:14Z</time>
      </trkpt>
      <trkpt lat="43.47808" lon="6.33943">
        <ele>173.66</ele>
        <time>2015-10-29T07:36:19Z</time>
      </trkpt>
      <trkpt lat="43.47793" lon="6.33938">
        <ele>172.21</ele>
        <time>2015-10-29T07:36:34Z</time>
      </trkpt>
      <trkpt lat="43.47781" lon="6.3394">
        <ele>171.25</ele>
        <time>2015-10-29T07:36:52Z</time>
      </trkpt>
      <trkpt lat="43.47779" lon="6.33939">
        <ele>170.77</ele>
        <time>2015-10-29T07:36:54Z</time>
      </trkpt>
      <trkpt lat="43.47767" lon="6.33931">
        <ele>168.85</ele>
        <time>2015-10-29T07:37:05Z</time>
      </trkpt>
      <trkpt lat="43.47752" lon="6.33917">
        <ele>166.45</ele>
        <time>2015-10-29T07:37:18Z</time>
      </trkpt>
      <trkpt lat="43.47742" lon="6.33906">
        <ele>164.52</ele>
        <time>2015-10-29T07:37:30Z</time>
      </trkpt>
      <trkpt lat="43.47733" lon="6.33894">
        <ele>162.12</ele>
        <time>2015-10-29T07:37:44Z</time>
      </trkpt>
      <trkpt lat="43.47722" lon="6.33882">
        <ele>160.2</ele>
        <time>2015-10-29T07:37:58Z</time>
      </trkpt>
      <trkpt lat="43.47715" lon="6.33878">
        <ele>159.24</ele>
        <time>2015-10-29T07:38:06Z</time>
      </trkpt>
      <trkpt lat="43.477" lon="6.33873">
        <ele>157.31</ele>
        <time>2015-10-29T07:38:17Z</time>
      </trkpt>
      <trkpt lat="43.47684" lon="6.33869">
        <ele>156.35</ele>
        <time>2015-10-29T07:38:32Z</time>
      </trkpt>
      <trkpt lat="43.47673" lon="6.33865">
        <ele>155.39</ele>
        <time>2015-10-29T07:38:42Z</time>
      </trkpt>
      <trkpt lat="43.47657" lon="6.33848">
        <ele>153.47</ele>
        <time>2015-10-29T07:38:56Z</time>
      </trkpt>
      <trkpt lat="43.47651" lon="6.33843">
        <ele>152.03</ele>
        <time>2015-10-29T07:39:03Z</time>
      </trkpt>
      <trkpt lat="43.47632" lon="6.33839">
        <ele>149.14</ele>
        <time>2015-10-29T07:39:19Z</time>
      </trkpt>
      <trkpt lat="43.47613" lon="6.33839">
        <ele>146.74</ele>
        <time>2015-10-29T07:39:34Z</time>
      </trkpt>
      <trkpt lat="43.4759" lon="6.33842">
        <ele>145.3</ele>
        <time>2015-10-29T07:39:52Z</time>
      </trkpt>
      <trkpt lat="43.47584" lon="6.33838">
        <ele>145.78</ele>
        <time>2015-10-29T07:40:01Z</time>
      </trkpt>
      <trkpt lat="43.47572" lon="6.33824">
        <ele>146.74</ele>
        <time>2015-10-29T07:40:15Z</time>
      </trkpt>
      <trkpt lat="43.4756" lon="6.33813">
        <ele>148.66</ele>
        <time>2015-10-29T07:40:28Z</time>
      </trkpt>
      <trkpt lat="43.47547" lon="6.33806">
        <ele>149.14</ele>
        <time>2015-10-29T07:40:40Z</time>
      </trkpt>
      <trkpt lat="43.47542" lon="6.33805">
        <ele>149.62</ele>
        <time>2015-10-29T07:40:45Z</time>
      </trkpt>
      <trkpt lat="43.47526" lon="6.33792">
        <ele>149.62</ele>
        <time>2015-10-29T07:41:00Z</time>
      </trkpt>
      <trkpt lat="43.4752" lon="6.33781">
        <ele>151.06</ele>
        <time>2015-10-29T07:41:08Z</time>
      </trkpt>
      <trkpt lat="43.47513" lon="6.33763">
        <ele>150.1</ele>
        <time>2015-10-29T07:41:20Z</time>
      </trkpt>
      <trkpt lat="43.4751" lon="6.33747">
        <ele>151.54</ele>
        <time>2015-10-29T07:41:32Z</time>
      </trkpt>
      <trkpt lat="43.47507" lon="6.33741">
        <ele>152.03</ele>
        <time>2015-10-29T07:41:37Z</time>
      </trkpt>
      <trkpt lat="43.47492" lon="6.33722">
        <ele>153.47</ele>
        <time>2015-10-29T07:41:52Z</time>
      </trkpt>
      <trkpt lat="43.47484" lon="6.33708">
        <ele>154.43</ele>
        <time>2015-10-29T07:42:06Z</time>
      </trkpt>
      <trkpt lat="43.47482" lon="6.33703">
        <ele>154.43</ele>
        <time>2015-10-29T07:42:12Z</time>
      </trkpt>
      <trkpt lat="43.47472" lon="6.33692">
        <ele>154.91</ele>
        <time>2015-10-29T07:42:22Z</time>
      </trkpt>
      <trkpt lat="43.47463" lon="6.33669">
        <ele>155.39</ele>
        <time>2015-10-29T07:42:33Z</time>
      </trkpt>
      <trkpt lat="43.47452" lon="6.33663">
        <ele>155.39</ele>
        <time>2015-10-29T07:42:41Z</time>
      </trkpt>
      <trkpt lat="43.47446" lon="6.3366">
        <ele>155.39</ele>
        <time>2015-10-29T07:42:45Z</time>
      </trkpt>
      <trkpt lat="43.47436" lon="6.33655">
        <ele>153.95</ele>
        <time>2015-10-29T07:42:56Z</time>
      </trkpt>
      <trkpt lat="43.47432" lon="6.33655">
        <ele>152.99</ele>
        <time>2015-10-29T07:43:03Z</time>
      </trkpt>
      <trkpt lat="43.47429" lon="6.33655">
        <ele>152.99</ele>
        <time>2015-10-29T07:43:05Z</time>
      </trkpt>
      <trkpt lat="43.4742" lon="6.33655">
        <ele>151.06</ele>
        <time>2015-10-29T07:43:15Z</time>
      </trkpt>
      <trkpt lat="43.47409" lon="6.33654">
        <ele>150.1</ele>
        <time>2015-10-29T07:43:24Z</time>
      </trkpt>
      <trkpt lat="43.474" lon="6.33653">
        <ele>149.62</ele>
        <time>2015-10-29T07:43:28Z</time>
      </trkpt>
      <trkpt lat="43.47396" lon="6.33651">
        <ele>149.62</ele>
        <time>2015-10-29T07:43:29Z</time>
      </trkpt>
      <trkpt lat="43.47394" lon="6.33651">
        <ele>149.62</ele>
        <time>2015-10-29T07:43:30Z</time>
      </trkpt>
      <trkpt lat="43.47392" lon="6.33651">
        <ele>149.14</ele>
        <time>2015-10-29T07:43:31Z</time>
      </trkpt>
      <trkpt lat="43.47388" lon="6.33651">
        <ele>148.66</ele>
        <time>2015-10-29T07:43:36Z</time>
      </trkpt>
      <trkpt lat="43.47386" lon="6.33651">
        <ele>148.18</ele>
        <time>2015-10-29T07:43:38Z</time>
      </trkpt>
      <trkpt lat="43.47384" lon="6.33651">
        <ele>148.66</ele>
        <time>2015-10-29T07:43:39Z</time>
      </trkpt>
      <trkpt lat="43.47383" lon="6.33651">
        <ele>148.18</ele>
        <time>2015-10-29T07:43:40Z</time>
      </trkpt>
      <trkpt lat="43.47381" lon="6.33651">
        <ele>148.18</ele>
        <time>2015-10-29T07:43:41Z</time>
      </trkpt>
      <trkpt lat="43.47379" lon="6.33651">
        <ele>147.7</ele>
        <time>2015-10-29T07:43:42Z</time>
      </trkpt>
      <trkpt lat="43.47371" lon="6.33655">
        <ele>147.22</ele>
        <time>2015-10-29T07:43:54Z</time>
      </trkpt>
      <trkpt lat="43.47365" lon="6.33653">
        <ele>147.7</ele>
        <time>2015-10-29T07:44:07Z</time>
      </trkpt>
      <trkpt lat="43.47362" lon="6.33656">
        <ele>149.14</ele>
        <time>2015-10-29T07:44:20Z</time>
      </trkpt>
      <trkpt lat="43.47356" lon="6.33656">
        <ele>149.14</ele>
        <time>2015-10-29T07:44:32Z</time>
      </trkpt>
      <trkpt lat="43.47352" lon="6.33653">
        <ele>149.14</ele>
        <time>2015-10-29T07:44:42Z</time>
      </trkpt>
      <trkpt lat="43.47349" lon="6.33651">
        <ele>148.66</ele>
        <time>2015-10-29T07:45:00Z</time>
      </trkpt>
      <trkpt lat="43.47345" lon="6.33649">
        <ele>148.66</ele>
        <time>2015-10-29T07:45:16Z</time>
      </trkpt>
      <trkpt lat="43.47343" lon="6.33648">
        <ele>148.18</ele>
        <time>2015-10-29T07:45:30Z</time>
      </trkpt>
      <trkpt lat="43.47342" lon="6.33648">
        <ele>148.18</ele>
        <time>2015-10-29T07:45:49Z</time>
      </trkpt>
      <trkpt lat="43.47339" lon="6.33648">
        <ele>148.18</ele>
        <time>2015-10-29T07:46:07Z</time>
      </trkpt>
      <trkpt lat="43.47338" lon="6.33651">
        <ele>149.14</ele>
        <time>2015-10-29T07:46:31Z</time>
      </trkpt>
      <trkpt lat="43.4733" lon="6.33647">
        <ele>149.14</ele>
        <time>2015-10-29T07:46:46Z</time>
      </trkpt>
      <trkpt lat="43.47327" lon="6.33644">
        <ele>148.66</ele>
        <time>2015-10-29T07:46:59Z</time>
      </trkpt>
      <trkpt lat="43.47322" lon="6.33641">
        <ele>149.14</ele>
        <time>2015-10-29T07:47:10Z</time>
      </trkpt>
      <trkpt lat="43.47326" lon="6.33635">
        <ele>147.7</ele>
        <time>2015-10-29T07:47:23Z</time>
      </trkpt>
      <trkpt lat="43.47326" lon="6.33632">
        <ele>146.26</ele>
        <time>2015-10-29T07:47:38Z</time>
      </trkpt>
      <trkpt lat="43.47334" lon="6.33626">
        <ele>146.74</ele>
        <time>2015-10-29T07:47:53Z</time>
      </trkpt>
      <trkpt lat="43.47332" lon="6.33612">
        <ele>147.7</ele>
        <time>2015-10-29T07:48:12Z</time>
      </trkpt>
      <trkpt lat="43.47326" lon="6.33599">
        <ele>149.62</ele>
        <time>2015-10-29T07:48:28Z</time>
      </trkpt>
      <trkpt lat="43.47319" lon="6.3359">
        <ele>151.06</ele>
        <time>2015-10-29T07:48:36Z</time>
      </trkpt>
      <trkpt lat="43.47313" lon="6.33572">
        <ele>152.99</ele>
        <time>2015-10-29T07:48:50Z</time>
      </trkpt>
      <trkpt lat="43.47312" lon="6.3357">
        <ele>152.99</ele>
        <time>2015-10-29T07:48:52Z</time>
      </trkpt>
      <trkpt lat="43.4731" lon="6.33567">
        <ele>153.47</ele>
        <time>2015-10-29T07:49:07Z</time>
      </trkpt>
      <trkpt lat="43.47311" lon="6.33567">
        <ele>152.99</ele>
        <time>2015-10-29T07:49:21Z</time>
      </trkpt>
      <trkpt lat="43.47313" lon="6.33562">
        <ele>152.99</ele>
        <time>2015-10-29T07:49:35Z</time>
      </trkpt>
      <trkpt lat="43.47313" lon="6.33561">
        <ele>152.99</ele>
        <time>2015-10-29T07:49:53Z</time>
      </trkpt>
      <trkpt lat="43.47311" lon="6.33565">
        <ele>152.51</ele>
        <time>2015-10-29T07:49:57Z</time>
      </trkpt>
      <trkpt lat="43.47309" lon="6.33566">
        <ele>152.51</ele>
        <time>2015-10-29T07:50:10Z</time>
      </trkpt>
      <trkpt lat="43.47307" lon="6.33563">
        <ele>153.47</ele>
        <time>2015-10-29T07:50:17Z</time>
      </trkpt>
      <trkpt lat="43.47302" lon="6.33555">
        <ele>154.91</ele>
        <time>2015-10-29T07:50:27Z</time>
      </trkpt>
      <trkpt lat="43.47299" lon="6.33549">
        <ele>154.91</ele>
        <time>2015-10-29T07:50:33Z</time>
      </trkpt>
      <trkpt lat="43.47296" lon="6.33542">
        <ele>155.87</ele>
        <time>2015-10-29T07:50:38Z</time>
      </trkpt>
      <trkpt lat="43.47296" lon="6.3354">
        <ele>157.31</ele>
        <time>2015-10-29T07:50:40Z</time>
      </trkpt>
      <trkpt lat="43.4729" lon="6.33528">
        <ele>157.79</ele>
        <time>2015-10-29T07:50:52Z</time>
      </trkpt>
      <trkpt lat="43.47289" lon="6.33527">
        <ele>158.27</ele>
        <time>2015-10-29T07:50:53Z</time>
      </trkpt>
      <trkpt lat="43.47287" lon="6.33525">
        <ele>158.27</ele>
        <time>2015-10-29T07:50:55Z</time>
      </trkpt>
      <trkpt lat="43.47279" lon="6.33515">
        <ele>159.72</ele>
        <time>2015-10-29T07:51:08Z</time>
      </trkpt>
      <trkpt lat="43.47273" lon="6.33507">
        <ele>160.68</ele>
        <time>2015-10-29T07:51:16Z</time>
      </trkpt>
      <trkpt lat="43.47265" lon="6.33491">
        <ele>162.6</ele>
        <time>2015-10-29T07:51:29Z</time>
      </trkpt>
      <trkpt lat="43.47264" lon="6.33488">
        <ele>162.6</ele>
        <time>2015-10-29T07:51:31Z</time>
      </trkpt>
      <trkpt lat="43.47261" lon="6.33479">
        <ele>163.56</ele>
        <time>2015-10-29T07:51:37Z</time>
      </trkpt>
      <trkpt lat="43.47255" lon="6.33462">
        <ele>164.04</ele>
        <time>2015-10-29T07:51:49Z</time>
      </trkpt>
      <trkpt lat="43.47251" lon="6.33443">
        <ele>165</ele>
        <time>2015-10-29T07:52:02Z</time>
      </trkpt>
      <trkpt lat="43.4725" lon="6.3344">
        <ele>165</ele>
        <time>2015-10-29T07:52:04Z</time>
      </trkpt>
      <trkpt lat="43.47246" lon="6.33428">
        <ele>165</ele>
        <time>2015-10-29T07:52:17Z</time>
      </trkpt>
      <trkpt lat="43.47247" lon="6.33425">
        <ele>165</ele>
        <time>2015-10-29T07:52:32Z</time>
      </trkpt>
      <trkpt lat="43.47246" lon="6.33423">
        <ele>165.48</ele>
        <time>2015-10-29T07:52:47Z</time>
      </trkpt>
      <trkpt lat="43.47246" lon="6.33421">
        <ele>165</ele>
        <time>2015-10-29T07:53:04Z</time>
      </trkpt>
      <trkpt lat="43.47246" lon="6.33419">
        <ele>165.48</ele>
        <time>2015-10-29T07:53:20Z</time>
      </trkpt>
      <trkpt lat="43.47236" lon="6.33415">
        <ele>165</ele>
        <time>2015-10-29T07:53:34Z</time>
      </trkpt>
      <trkpt lat="43.47223" lon="6.33406">
        <ele>164.04</ele>
        <time>2015-10-29T07:53:51Z</time>
      </trkpt>
      <trkpt lat="43.47206" lon="6.33401">
        <ele>161.64</ele>
        <time>2015-10-29T07:54:10Z</time>
      </trkpt>
      <trkpt lat="43.47192" lon="6.33394">
        <ele>160.2</ele>
        <time>2015-10-29T07:54:26Z</time>
      </trkpt>
      <trkpt lat="43.47186" lon="6.33394">
        <ele>159.72</ele>
        <time>2015-10-29T07:54:43Z</time>
      </trkpt>
      <trkpt lat="43.47183" lon="6.33391">
        <ele>157.79</ele>
        <time>2015-10-29T07:54:58Z</time>
      </trkpt>
      <trkpt lat="43.4718" lon="6.33386">
        <ele>155.39</ele>
        <time>2015-10-29T07:55:15Z</time>
      </trkpt>
      <trkpt lat="43.4718" lon="6.33387">
        <ele>152.99</ele>
        <time>2015-10-29T07:55:32Z</time>
      </trkpt>
      <trkpt lat="43.47175" lon="6.3337">
        <ele>151.54</ele>
        <time>2015-10-29T07:55:45Z</time>
      </trkpt>
      <trkpt lat="43.47157" lon="6.33328">
        <ele>149.62</ele>
        <time>2015-10-29T07:56:02Z</time>
      </trkpt>
      <trkpt lat="43.47143" lon="6.33297">
        <ele>147.22</ele>
        <time>2015-10-29T07:56:19Z</time>
      </trkpt>
      <trkpt lat="43.47134" lon="6.33278">
        <ele>146.26</ele>
        <time>2015-10-29T07:56:35Z</time>
      </trkpt>
      <trkpt lat="43.47135" lon="6.33273">
        <ele>144.82</ele>
        <time>2015-10-29T07:56:51Z</time>
      </trkpt>
      <trkpt lat="43.47135" lon="6.3327">
        <ele>145.3</ele>
        <time>2015-10-29T07:57:14Z</time>
      </trkpt>
      <trkpt lat="43.47137" lon="6.3325">
        <ele>144.34</ele>
        <time>2015-10-29T07:57:33Z</time>
      </trkpt>
      <trkpt lat="43.47137" lon="6.33243">
        <ele>144.34</ele>
        <time>2015-10-29T07:57:36Z</time>
      </trkpt>
      <trkpt lat="43.47143" lon="6.33227">
        <ele>141.93</ele>
        <time>2015-10-29T07:57:52Z</time>
      </trkpt>
      <trkpt lat="43.47144" lon="6.33217">
        <ele>140.01</ele>
        <time>2015-10-29T07:58:03Z</time>
      </trkpt>
      <trkpt lat="43.47144" lon="6.33214">
        <ele>139.53</ele>
        <time>2015-10-29T07:58:05Z</time>
      </trkpt>
      <trkpt lat="43.47145" lon="6.3318">
        <ele>137.13</ele>
        <time>2015-10-29T07:58:21Z</time>
      </trkpt>
      <trkpt lat="43.47149" lon="6.33153">
        <ele>135.2</ele>
        <time>2015-10-29T07:58:36Z</time>
      </trkpt>
      <trkpt lat="43.47155" lon="6.33125">
        <ele>132.8</ele>
        <time>2015-10-29T07:58:54Z</time>
      </trkpt>
      <trkpt lat="43.47145" lon="6.331">
        <ele>130.88</ele>
        <time>2015-10-29T07:59:14Z</time>
      </trkpt>
      <trkpt lat="43.47139" lon="6.33089">
        <ele>128.47</ele>
        <time>2015-10-29T07:59:34Z</time>
      </trkpt>
      <trkpt lat="43.47136" lon="6.33085">
        <ele>126.07</ele>
        <time>2015-10-29T07:59:50Z</time>
      </trkpt>
      <trkpt lat="43.47128" lon="6.33076">
        <ele>124.63</ele>
        <time>2015-10-29T08:00:04Z</time>
      </trkpt>
      <trkpt lat="43.47126" lon="6.33075">
        <ele>123.19</ele>
        <time>2015-10-29T08:00:21Z</time>
      </trkpt>
      <trkpt lat="43.4711" lon="6.33054">
        <ele>121.26</ele>
        <time>2015-10-29T08:00:38Z</time>
      </trkpt>
      <trkpt lat="43.47101" lon="6.33044">
        <ele>119.82</ele>
        <time>2015-10-29T08:00:55Z</time>
      </trkpt>
      <trkpt lat="43.4707" lon="6.33017">
        <ele>117.42</ele>
        <time>2015-10-29T08:01:11Z</time>
      </trkpt>
      <trkpt lat="43.47036" lon="6.32992">
        <ele>115.98</ele>
        <time>2015-10-29T08:01:27Z</time>
      </trkpt>
      <trkpt lat="43.47018" lon="6.32981">
        <ele>114.53</ele>
        <time>2015-10-29T08:01:42Z</time>
      </trkpt>
      <trkpt lat="43.47006" lon="6.32974">
        <ele>111.65</ele>
        <time>2015-10-29T08:01:57Z</time>
      </trkpt>
      <trkpt lat="43.46997" lon="6.32966">
        <ele>110.21</ele>
        <time>2015-10-29T08:02:11Z</time>
      </trkpt>
      <trkpt lat="43.46981" lon="6.32935">
        <ele>107.81</ele>
        <time>2015-10-29T08:02:29Z</time>
      </trkpt>
      <trkpt lat="43.46975" lon="6.32914">
        <ele>105.4</ele>
        <time>2015-10-29T08:02:42Z</time>
      </trkpt>
      <trkpt lat="43.46968" lon="6.32896">
        <ele>102.52</ele>
        <time>2015-10-29T08:02:55Z</time>
      </trkpt>
      <trkpt lat="43.46965" lon="6.32881">
        <ele>100.6</ele>
        <time>2015-10-29T08:03:07Z</time>
      </trkpt>
      <trkpt lat="43.4696" lon="6.32869">
        <ele>98.19</ele>
        <time>2015-10-29T08:03:21Z</time>
      </trkpt>
      <trkpt lat="43.46949" lon="6.3285">
        <ele>94.83</ele>
        <time>2015-10-29T08:03:36Z</time>
      </trkpt>
      <trkpt lat="43.46939" lon="6.32823">
        <ele>92.9</ele>
        <time>2015-10-29T08:03:52Z</time>
      </trkpt>
      <trkpt lat="43.46936" lon="6.32809">
        <ele>91.94</ele>
        <time>2015-10-29T08:04:07Z</time>
      </trkpt>
      <trkpt lat="43.46929" lon="6.32791">
        <ele>91.94</ele>
        <time>2015-10-29T08:04:21Z</time>
      </trkpt>
      <trkpt lat="43.46912" lon="6.32767">
        <ele>91.94</ele>
        <time>2015-10-29T08:04:38Z</time>
      </trkpt>
      <trkpt lat="43.46906" lon="6.32759">
        <ele>92.42</ele>
        <time>2015-10-29T08:04:54Z</time>
      </trkpt>
      <trkpt lat="43.4688" lon="6.32736">
        <ele>92.9</ele>
        <time>2015-10-29T08:05:11Z</time>
      </trkpt>
      <trkpt lat="43.46868" lon="6.32732">
        <ele>93.39</ele>
        <time>2015-10-29T08:05:23Z</time>
      </trkpt>
      <trkpt lat="43.46863" lon="6.32729">
        <ele>93.87</ele>
        <time>2015-10-29T08:05:29Z</time>
      </trkpt>
      <trkpt lat="43.46845" lon="6.32728">
        <ele>94.35</ele>
        <time>2015-10-29T08:05:46Z</time>
      </trkpt>
      <trkpt lat="43.46841" lon="6.3273">
        <ele>94.35</ele>
        <time>2015-10-29T08:06:00Z</time>
      </trkpt>
      <trkpt lat="43.4684" lon="6.32732">
        <ele>93.87</ele>
        <time>2015-10-29T08:06:17Z</time>
      </trkpt>
      <trkpt lat="43.46841" lon="6.32732">
        <ele>93.87</ele>
        <time>2015-10-29T08:06:41Z</time>
      </trkpt>
      <trkpt lat="43.46842" lon="6.32732">
        <ele>93.39</ele>
        <time>2015-10-29T08:06:56Z</time>
      </trkpt>
      <trkpt lat="43.46856" lon="6.32737">
        <ele>92.9</ele>
        <time>2015-10-29T08:07:11Z</time>
      </trkpt>
      <trkpt lat="43.46859" lon="6.32739">
        <ele>92.42</ele>
        <time>2015-10-29T08:07:15Z</time>
      </trkpt>
      <trkpt lat="43.46881" lon="6.32745">
        <ele>91.94</ele>
        <time>2015-10-29T08:07:29Z</time>
      </trkpt>
      <trkpt lat="43.46893" lon="6.32752">
        <ele>91.94</ele>
        <time>2015-10-29T08:07:38Z</time>
      </trkpt>
      <trkpt lat="43.46918" lon="6.32775">
        <ele>90.98</ele>
        <time>2015-10-29T08:07:57Z</time>
      </trkpt>
      <trkpt lat="43.46935" lon="6.32795">
        <ele>90.5</ele>
        <time>2015-10-29T08:08:13Z</time>
      </trkpt>
      <trkpt lat="43.46946" lon="6.32819">
        <ele>90.5</ele>
        <time>2015-10-29T08:08:29Z</time>
      </trkpt>
      <trkpt lat="43.46956" lon="6.3283">
        <ele>90.5</ele>
        <time>2015-10-29T08:08:46Z</time>
      </trkpt>
      <trkpt lat="43.46956" lon="6.32831">
        <ele>90.5</ele>
        <time>2015-10-29T08:09:14Z</time>
      </trkpt>
      <trkpt lat="43.46957" lon="6.32831">
        <ele>90.5</ele>
        <time>2015-10-29T08:09:45Z</time>
      </trkpt>
      <trkpt lat="43.46961" lon="6.32836">
        <ele>90.98</ele>
        <time>2015-10-29T08:10:09Z</time>
      </trkpt>
      <trkpt lat="43.46962" lon="6.32834">
        <ele>90.5</ele>
        <time>2015-10-29T08:10:31Z</time>
      </trkpt>
      <trkpt lat="43.46961" lon="6.32832">
        <ele>90.98</ele>
        <time>2015-10-29T08:10:55Z</time>
      </trkpt>
      <trkpt lat="43.46959" lon="6.3283">
        <ele>90.5</ele>
        <time>2015-10-29T08:11:13Z</time>
      </trkpt>
      <trkpt lat="43.46961" lon="6.32834">
        <ele>90.5</ele>
        <time>2015-10-29T08:11:36Z</time>
      </trkpt>
      <trkpt lat="43.46971" lon="6.32851">
        <ele>90.5</ele>
        <time>2015-10-29T08:11:53Z</time>
      </trkpt>
      <trkpt lat="43.46981" lon="6.32862">
        <ele>91.46</ele>
        <time>2015-10-29T08:12:06Z</time>
      </trkpt>
      <trkpt lat="43.46988" lon="6.32878">
        <ele>91.94</ele>
        <time>2015-10-29T08:12:19Z</time>
      </trkpt>
      <trkpt lat="43.46996" lon="6.32892">
        <ele>92.42</ele>
        <time>2015-10-29T08:12:31Z</time>
      </trkpt>
      <trkpt lat="43.47003" lon="6.32909">
        <ele>92.42</ele>
        <time>2015-10-29T08:12:44Z</time>
      </trkpt>
      <trkpt lat="43.47012" lon="6.32924">
        <ele>92.42</ele>
        <time>2015-10-29T08:12:58Z</time>
      </trkpt>
      <trkpt lat="43.47021" lon="6.32934">
        <ele>91.46</ele>
        <time>2015-10-29T08:13:10Z</time>
      </trkpt>
      <trkpt lat="43.47035" lon="6.32942">
        <ele>92.9</ele>
        <time>2015-10-29T08:13:21Z</time>
      </trkpt>
      <trkpt lat="43.4704" lon="6.32944">
        <ele>93.39</ele>
        <time>2015-10-29T08:13:25Z</time>
      </trkpt>
      <trkpt lat="43.4705" lon="6.32946">
        <ele>93.39</ele>
        <time>2015-10-29T08:13:33Z</time>
      </trkpt>
      <trkpt lat="43.47055" lon="6.32946">
        <ele>94.35</ele>
        <time>2015-10-29T08:13:37Z</time>
      </trkpt>
      <trkpt lat="43.47076" lon="6.32937">
        <ele>94.35</ele>
        <time>2015-10-29T08:13:53Z</time>
      </trkpt>
      <trkpt lat="43.47085" lon="6.32931">
        <ele>93.39</ele>
        <time>2015-10-29T08:14:04Z</time>
      </trkpt>
      <trkpt lat="43.47094" lon="6.32922">
        <ele>92.9</ele>
        <time>2015-10-29T08:14:18Z</time>
      </trkpt>
      <trkpt lat="43.47106" lon="6.32905">
        <ele>92.42</ele>
        <time>2015-10-29T08:14:32Z</time>
      </trkpt>
      <trkpt lat="43.47113" lon="6.32885">
        <ele>92.9</ele>
        <time>2015-10-29T08:14:46Z</time>
      </trkpt>
      <trkpt lat="43.47121" lon="6.32866">
        <ele>92.9</ele>
        <time>2015-10-29T08:15:01Z</time>
      </trkpt>
      <trkpt lat="43.4713" lon="6.32842">
        <ele>92.9</ele>
        <time>2015-10-29T08:15:15Z</time>
      </trkpt>
      <trkpt lat="43.47138" lon="6.32822">
        <ele>92.9</ele>
        <time>2015-10-29T08:15:28Z</time>
      </trkpt>
      <trkpt lat="43.47152" lon="6.32807">
        <ele>92.42</ele>
        <time>2015-10-29T08:15:41Z</time>
      </trkpt>
      <trkpt lat="43.4717" lon="6.32794">
        <ele>92.42</ele>
        <time>2015-10-29T08:15:55Z</time>
      </trkpt>
      <trkpt lat="43.47188" lon="6.32784">
        <ele>92.42</ele>
        <time>2015-10-29T08:16:09Z</time>
      </trkpt>
      <trkpt lat="43.47201" lon="6.32778">
        <ele>91.94</ele>
        <time>2015-10-29T08:16:20Z</time>
      </trkpt>
      <trkpt lat="43.47215" lon="6.32777">
        <ele>91.94</ele>
        <time>2015-10-29T08:16:32Z</time>
      </trkpt>
      <trkpt lat="43.47227" lon="6.32775">
        <ele>91.94</ele>
        <time>2015-10-29T08:16:46Z</time>
      </trkpt>
      <trkpt lat="43.47234" lon="6.32774">
        <ele>91.94</ele>
        <time>2015-10-29T08:17:04Z</time>
      </trkpt>
      <trkpt lat="43.47245" lon="6.32772">
        <ele>92.42</ele>
        <time>2015-10-29T08:17:16Z</time>
      </trkpt>
      <trkpt lat="43.4727" lon="6.32777">
        <ele>91.46</ele>
        <time>2015-10-29T08:17:29Z</time>
      </trkpt>
      <trkpt lat="43.47272" lon="6.32777">
        <ele>92.42</ele>
        <time>2015-10-29T08:17:31Z</time>
      </trkpt>
      <trkpt lat="43.47288" lon="6.32785">
        <ele>91.46</ele>
        <time>2015-10-29T08:17:43Z</time>
      </trkpt>
      <trkpt lat="43.47299" lon="6.32797">
        <ele>91.94</ele>
        <time>2015-10-29T08:17:55Z</time>
      </trkpt>
      <trkpt lat="43.47306" lon="6.32801">
        <ele>91.94</ele>
        <time>2015-10-29T08:18:00Z</time>
      </trkpt>
      <trkpt lat="43.47313" lon="6.32808">
        <ele>91.94</ele>
        <time>2015-10-29T08:18:07Z</time>
      </trkpt>
      <trkpt lat="43.47327" lon="6.32824">
        <ele>92.42</ele>
        <time>2015-10-29T08:18:21Z</time>
      </trkpt>
      <trkpt lat="43.4733" lon="6.32826">
        <ele>91.94</ele>
        <time>2015-10-29T08:18:24Z</time>
      </trkpt>
      <trkpt lat="43.47348" lon="6.32847">
        <ele>92.42</ele>
        <time>2015-10-29T08:18:42Z</time>
      </trkpt>
      <trkpt lat="43.47357" lon="6.32868">
        <ele>92.9</ele>
        <time>2015-10-29T08:18:56Z</time>
      </trkpt>
      <trkpt lat="43.47369" lon="6.32892">
        <ele>93.39</ele>
        <time>2015-10-29T08:19:07Z</time>
      </trkpt>
      <trkpt lat="43.47376" lon="6.32913">
        <ele>93.39</ele>
        <time>2015-10-29T08:19:20Z</time>
      </trkpt>
      <trkpt lat="43.4738" lon="6.32921">
        <ele>93.39</ele>
        <time>2015-10-29T08:19:25Z</time>
      </trkpt>
      <trkpt lat="43.47387" lon="6.32929">
        <ele>93.39</ele>
        <time>2015-10-29T08:19:34Z</time>
      </trkpt>
      <trkpt lat="43.4739" lon="6.32929">
        <ele>93.87</ele>
        <time>2015-10-29T08:19:36Z</time>
      </trkpt>
      <trkpt lat="43.47405" lon="6.32921">
        <ele>93.87</ele>
        <time>2015-10-29T08:19:50Z</time>
      </trkpt>
      <trkpt lat="43.47408" lon="6.32921">
        <ele>93.87</ele>
        <time>2015-10-29T08:19:52Z</time>
      </trkpt>
      <trkpt lat="43.47423" lon="6.32907">
        <ele>94.35</ele>
        <time>2015-10-29T08:20:07Z</time>
      </trkpt>
      <trkpt lat="43.47436" lon="6.32894">
        <ele>94.35</ele>
        <time>2015-10-29T08:20:21Z</time>
      </trkpt>
      <trkpt lat="43.4745" lon="6.32883">
        <ele>94.35</ele>
        <time>2015-10-29T08:20:37Z</time>
      </trkpt>
      <trkpt lat="43.47454" lon="6.32882">
        <ele>94.35</ele>
        <time>2015-10-29T08:21:01Z</time>
      </trkpt>
      <trkpt lat="43.47453" lon="6.32877">
        <ele>94.35</ele>
        <time>2015-10-29T08:21:27Z</time>
      </trkpt>
      <trkpt lat="43.47459" lon="6.32869">
        <ele>94.35</ele>
        <time>2015-10-29T08:21:41Z</time>
      </trkpt>
      <trkpt lat="43.47475" lon="6.32853">
        <ele>94.83</ele>
        <time>2015-10-29T08:21:53Z</time>
      </trkpt>
      <trkpt lat="43.47488" lon="6.32843">
        <ele>95.31</ele>
        <time>2015-10-29T08:22:05Z</time>
      </trkpt>
      <trkpt lat="43.47501" lon="6.32823">
        <ele>95.79</ele>
        <time>2015-10-29T08:22:21Z</time>
      </trkpt>
      <trkpt lat="43.47522" lon="6.32808">
        <ele>95.79</ele>
        <time>2015-10-29T08:22:35Z</time>
      </trkpt>
      <trkpt lat="43.47535" lon="6.32803">
        <ele>96.75</ele>
        <time>2015-10-29T08:22:49Z</time>
      </trkpt>
      <trkpt lat="43.47549" lon="6.32807">
        <ele>97.23</ele>
        <time>2015-10-29T08:23:02Z</time>
      </trkpt>
      <trkpt lat="43.47563" lon="6.32814">
        <ele>97.71</ele>
        <time>2015-10-29T08:23:16Z</time>
      </trkpt>
      <trkpt lat="43.47571" lon="6.32823">
        <ele>97.71</ele>
        <time>2015-10-29T08:23:24Z</time>
      </trkpt>
      <trkpt lat="43.47581" lon="6.32844">
        <ele>97.23</ele>
        <time>2015-10-29T08:23:38Z</time>
      </trkpt>
      <trkpt lat="43.47585" lon="6.3285">
        <ele>97.23</ele>
        <time>2015-10-29T08:23:44Z</time>
      </trkpt>
      <trkpt lat="43.47588" lon="6.3286">
        <ele>97.23</ele>
        <time>2015-10-29T08:23:50Z</time>
      </trkpt>
      <trkpt lat="43.47589" lon="6.32865">
        <ele>97.23</ele>
        <time>2015-10-29T08:23:53Z</time>
      </trkpt>
      <trkpt lat="43.47593" lon="6.32878">
        <ele>97.23</ele>
        <time>2015-10-29T08:24:01Z</time>
      </trkpt>
      <trkpt lat="43.47599" lon="6.32898">
        <ele>98.19</ele>
        <time>2015-10-29T08:24:14Z</time>
      </trkpt>
      <trkpt lat="43.47606" lon="6.3292">
        <ele>98.19</ele>
        <time>2015-10-29T08:24:27Z</time>
      </trkpt>
      <trkpt lat="43.47606" lon="6.32922">
        <ele>98.19</ele>
        <time>2015-10-29T08:24:28Z</time>
      </trkpt>
      <trkpt lat="43.47614" lon="6.32942">
        <ele>98.67</ele>
        <time>2015-10-29T08:24:43Z</time>
      </trkpt>
      <trkpt lat="43.47621" lon="6.32956">
        <ele>99.15</ele>
        <time>2015-10-29T08:24:54Z</time>
      </trkpt>
      <trkpt lat="43.47628" lon="6.32968">
        <ele>99.15</ele>
        <time>2015-10-29T08:25:02Z</time>
      </trkpt>
      <trkpt lat="43.47641" lon="6.32996">
        <ele>99.63</ele>
        <time>2015-10-29T08:25:20Z</time>
      </trkpt>
      <trkpt lat="43.47645" lon="6.33006">
        <ele>99.63</ele>
        <time>2015-10-29T08:25:27Z</time>
      </trkpt>
      <trkpt lat="43.47647" lon="6.33012">
        <ele>99.63</ele>
        <time>2015-10-29T08:25:31Z</time>
      </trkpt>
      <trkpt lat="43.47651" lon="6.33028">
        <ele>100.11</ele>
        <time>2015-10-29T08:25:44Z</time>
      </trkpt>
      <trkpt lat="43.47652" lon="6.33031">
        <ele>100.11</ele>
        <time>2015-10-29T08:25:46Z</time>
      </trkpt>
      <trkpt lat="43.47659" lon="6.3305">
        <ele>100.11</ele>
        <time>2015-10-29T08:25:56Z</time>
      </trkpt>
      <trkpt lat="43.47663" lon="6.33065">
        <ele>100.6</ele>
        <time>2015-10-29T08:26:04Z</time>
      </trkpt>
      <trkpt lat="43.47671" lon="6.33077">
        <ele>101.08</ele>
        <time>2015-10-29T08:26:15Z</time>
      </trkpt>
      <trkpt lat="43.47682" lon="6.3309">
        <ele>101.08</ele>
        <time>2015-10-29T08:26:27Z</time>
      </trkpt>
      <trkpt lat="43.47687" lon="6.331">
        <ele>101.08</ele>
        <time>2015-10-29T08:26:35Z</time>
      </trkpt>
      <trkpt lat="43.47692" lon="6.33108">
        <ele>101.56</ele>
        <time>2015-10-29T08:26:42Z</time>
      </trkpt>
      <trkpt lat="43.47703" lon="6.33119">
        <ele>101.56</ele>
        <time>2015-10-29T08:26:53Z</time>
      </trkpt>
      <trkpt lat="43.47708" lon="6.33128">
        <ele>101.56</ele>
        <time>2015-10-29T08:26:59Z</time>
      </trkpt>
      <trkpt lat="43.47716" lon="6.33137">
        <ele>102.04</ele>
        <time>2015-10-29T08:27:07Z</time>
      </trkpt>
      <trkpt lat="43.47722" lon="6.3315">
        <ele>102.52</ele>
        <time>2015-10-29T08:27:21Z</time>
      </trkpt>
      <trkpt lat="43.47731" lon="6.33163">
        <ele>103</ele>
        <time>2015-10-29T08:27:33Z</time>
      </trkpt>
      <trkpt lat="43.47737" lon="6.33177">
        <ele>103.48</ele>
        <time>2015-10-29T08:27:42Z</time>
      </trkpt>
      <trkpt lat="43.47739" lon="6.3318">
        <ele>103.48</ele>
        <time>2015-10-29T08:27:44Z</time>
      </trkpt>
      <trkpt lat="43.47749" lon="6.33198">
        <ele>103.96</ele>
        <time>2015-10-29T08:27:58Z</time>
      </trkpt>
      <trkpt lat="43.47752" lon="6.33207">
        <ele>104.44</ele>
        <time>2015-10-29T08:28:04Z</time>
      </trkpt>
      <trkpt lat="43.4776" lon="6.33231">
        <ele>105.4</ele>
        <time>2015-10-29T08:28:18Z</time>
      </trkpt>
      <trkpt lat="43.47765" lon="6.33245">
        <ele>106.36</ele>
        <time>2015-10-29T08:28:26Z</time>
      </trkpt>
      <trkpt lat="43.4777" lon="6.33264">
        <ele>106.36</ele>
        <time>2015-10-29T08:28:37Z</time>
      </trkpt>
      <trkpt lat="43.47774" lon="6.3327">
        <ele>105.88</ele>
        <time>2015-10-29T08:28:43Z</time>
      </trkpt>
      <trkpt lat="43.47777" lon="6.33292">
        <ele>105.88</ele>
        <time>2015-10-29T08:28:55Z</time>
      </trkpt>
      <trkpt lat="43.47777" lon="6.33298">
        <ele>105.88</ele>
        <time>2015-10-29T08:28:59Z</time>
      </trkpt>
      <trkpt lat="43.47777" lon="6.33304">
        <ele>105.88</ele>
        <time>2015-10-29T08:29:03Z</time>
      </trkpt>
      <trkpt lat="43.47781" lon="6.33322">
        <ele>105.88</ele>
        <time>2015-10-29T08:29:13Z</time>
      </trkpt>
      <trkpt lat="43.47784" lon="6.33331">
        <ele>105.88</ele>
        <time>2015-10-29T08:29:18Z</time>
      </trkpt>
      <trkpt lat="43.47785" lon="6.33336">
        <ele>105.88</ele>
        <time>2015-10-29T08:29:21Z</time>
      </trkpt>
      <trkpt lat="43.47792" lon="6.33358">
        <ele>106.84</ele>
        <time>2015-10-29T08:29:35Z</time>
      </trkpt>
      <trkpt lat="43.47793" lon="6.3336">
        <ele>106.84</ele>
        <time>2015-10-29T08:29:36Z</time>
      </trkpt>
      <trkpt lat="43.47808" lon="6.33375">
        <ele>107.32</ele>
        <time>2015-10-29T08:29:50Z</time>
      </trkpt>
      <trkpt lat="43.4781" lon="6.33377">
        <ele>107.32</ele>
        <time>2015-10-29T08:29:53Z</time>
      </trkpt>
      <trkpt lat="43.47812" lon="6.33384">
        <ele>107.32</ele>
        <time>2015-10-29T08:29:59Z</time>
      </trkpt>
      <trkpt lat="43.47813" lon="6.33388">
        <ele>107.81</ele>
        <time>2015-10-29T08:30:02Z</time>
      </trkpt>
      <trkpt lat="43.47814" lon="6.33396">
        <ele>107.81</ele>
        <time>2015-10-29T08:30:09Z</time>
      </trkpt>
      <trkpt lat="43.47817" lon="6.33411">
        <ele>107.81</ele>
        <time>2015-10-29T08:30:19Z</time>
      </trkpt>
      <trkpt lat="43.47822" lon="6.33426">
        <ele>108.29</ele>
        <time>2015-10-29T08:30:29Z</time>
      </trkpt>
      <trkpt lat="43.47824" lon="6.33432">
        <ele>108.29</ele>
        <time>2015-10-29T08:30:33Z</time>
      </trkpt>
      <trkpt lat="43.47825" lon="6.33438">
        <ele>108.29</ele>
        <time>2015-10-29T08:30:37Z</time>
      </trkpt>
      <trkpt lat="43.47826" lon="6.33442">
        <ele>108.29</ele>
        <time>2015-10-29T08:30:39Z</time>
      </trkpt>
      <trkpt lat="43.47833" lon="6.33462">
        <ele>108.77</ele>
        <time>2015-10-29T08:30:53Z</time>
      </trkpt>
      <trkpt lat="43.47838" lon="6.33478">
        <ele>109.25</ele>
        <time>2015-10-29T08:31:02Z</time>
      </trkpt>
      <trkpt lat="43.47842" lon="6.33484">
        <ele>109.25</ele>
        <time>2015-10-29T08:31:06Z</time>
      </trkpt>
      <trkpt lat="43.47849" lon="6.33504">
        <ele>109.73</ele>
        <time>2015-10-29T08:31:20Z</time>
      </trkpt>
      <trkpt lat="43.47852" lon="6.3351">
        <ele>109.73</ele>
        <time>2015-10-29T08:31:24Z</time>
      </trkpt>
      <trkpt lat="43.47865" lon="6.33527">
        <ele>110.21</ele>
        <time>2015-10-29T08:31:38Z</time>
      </trkpt>
      <trkpt lat="43.47871" lon="6.33534">
        <ele>110.69</ele>
        <time>2015-10-29T08:31:44Z</time>
      </trkpt>
      <trkpt lat="43.47885" lon="6.33546">
        <ele>110.69</ele>
        <time>2015-10-29T08:31:57Z</time>
      </trkpt>
      <trkpt lat="43.47894" lon="6.33552">
        <ele>111.17</ele>
        <time>2015-10-29T08:32:05Z</time>
      </trkpt>
      <trkpt lat="43.47904" lon="6.33556">
        <ele>111.17</ele>
        <time>2015-10-29T08:32:15Z</time>
      </trkpt>
      <trkpt lat="43.4791" lon="6.33557">
        <ele>111.17</ele>
        <time>2015-10-29T08:32:22Z</time>
      </trkpt>
      <trkpt lat="43.47913" lon="6.33558">
        <ele>111.65</ele>
        <time>2015-10-29T08:32:24Z</time>
      </trkpt>
      <trkpt lat="43.47923" lon="6.33562">
        <ele>111.65</ele>
        <time>2015-10-29T08:32:30Z</time>
      </trkpt>
      <trkpt lat="43.47931" lon="6.33565">
        <ele>112.13</ele>
        <time>2015-10-29T08:32:42Z</time>
      </trkpt>
      <trkpt lat="43.4794" lon="6.3357">
        <ele>112.13</ele>
        <time>2015-10-29T08:32:53Z</time>
      </trkpt>
      <trkpt lat="43.47941" lon="6.33571">
        <ele>112.13</ele>
        <time>2015-10-29T08:32:54Z</time>
      </trkpt>
      <trkpt lat="43.47949" lon="6.3358">
        <ele>112.61</ele>
        <time>2015-10-29T08:33:07Z</time>
      </trkpt>
      <trkpt lat="43.4795" lon="6.3358">
        <ele>112.61</ele>
        <time>2015-10-29T08:33:09Z</time>
      </trkpt>
      <trkpt lat="43.47963" lon="6.33592">
        <ele>112.61</ele>
        <time>2015-10-29T08:33:23Z</time>
      </trkpt>
      <trkpt lat="43.47976" lon="6.33602">
        <ele>112.61</ele>
        <time>2015-10-29T08:33:34Z</time>
      </trkpt>
      <trkpt lat="43.47991" lon="6.33622">
        <ele>113.09</ele>
        <time>2015-10-29T08:33:50Z</time>
      </trkpt>
      <trkpt lat="43.48001" lon="6.33637">
        <ele>113.57</ele>
        <time>2015-10-29T08:34:02Z</time>
      </trkpt>
      <trkpt lat="43.48014" lon="6.33655">
        <ele>114.05</ele>
        <time>2015-10-29T08:34:16Z</time>
      </trkpt>
      <trkpt lat="43.48026" lon="6.33668">
        <ele>114.53</ele>
        <time>2015-10-29T08:34:29Z</time>
      </trkpt>
      <trkpt lat="43.48027" lon="6.33668">
        <ele>114.53</ele>
        <time>2015-10-29T08:34:30Z</time>
      </trkpt>
      <trkpt lat="43.48037" lon="6.33685">
        <ele>115.5</ele>
        <time>2015-10-29T08:34:44Z</time>
      </trkpt>
      <trkpt lat="43.48043" lon="6.33692">
        <ele>115.5</ele>
        <time>2015-10-29T08:34:50Z</time>
      </trkpt>
      <trkpt lat="43.48054" lon="6.33702">
        <ele>115.98</ele>
        <time>2015-10-29T08:35:05Z</time>
      </trkpt>
      <trkpt lat="43.48068" lon="6.33717">
        <ele>116.46</ele>
        <time>2015-10-29T08:35:19Z</time>
      </trkpt>
      <trkpt lat="43.48077" lon="6.33721">
        <ele>116.46</ele>
        <time>2015-10-29T08:35:26Z</time>
      </trkpt>
      <trkpt lat="43.48097" lon="6.33738">
        <ele>117.42</ele>
        <time>2015-10-29T08:35:45Z</time>
      </trkpt>
      <trkpt lat="43.48111" lon="6.33748">
        <ele>117.9</ele>
        <time>2015-10-29T08:35:58Z</time>
      </trkpt>
      <trkpt lat="43.4813" lon="6.33753">
        <ele>118.38</ele>
        <time>2015-10-29T08:36:09Z</time>
      </trkpt>
      <trkpt lat="43.48137" lon="6.33746">
        <ele>118.86</ele>
        <time>2015-10-29T08:36:14Z</time>
      </trkpt>
      <trkpt lat="43.48159" lon="6.33728">
        <ele>119.82</ele>
        <time>2015-10-29T08:36:28Z</time>
      </trkpt>
      <trkpt lat="43.48163" lon="6.33723">
        <ele>120.3</ele>
        <time>2015-10-29T08:36:32Z</time>
      </trkpt>
      <trkpt lat="43.48166" lon="6.33717">
        <ele>120.3</ele>
        <time>2015-10-29T08:36:36Z</time>
      </trkpt>
      <trkpt lat="43.4817" lon="6.33711">
        <ele>120.78</ele>
        <time>2015-10-29T08:36:41Z</time>
      </trkpt>
      <trkpt lat="43.48175" lon="6.33702">
        <ele>120.78</ele>
        <time>2015-10-29T08:36:56Z</time>
      </trkpt>
      <trkpt lat="43.4818" lon="6.33693">
        <ele>120.78</ele>
        <time>2015-10-29T08:37:08Z</time>
      </trkpt>
      <trkpt lat="43.48198" lon="6.33676">
        <ele>121.74</ele>
        <time>2015-10-29T08:37:21Z</time>
      </trkpt>
      <trkpt lat="43.48208" lon="6.33656">
        <ele>122.22</ele>
        <time>2015-10-29T08:37:36Z</time>
      </trkpt>
      <trkpt lat="43.48214" lon="6.33643">
        <ele>122.22</ele>
        <time>2015-10-29T08:37:46Z</time>
      </trkpt>
      <trkpt lat="43.48221" lon="6.33621">
        <ele>122.71</ele>
        <time>2015-10-29T08:38:00Z</time>
      </trkpt>
      <trkpt lat="43.48221" lon="6.33618">
        <ele>122.71</ele>
        <time>2015-10-29T08:38:02Z</time>
      </trkpt>
      <trkpt lat="43.48223" lon="6.33614">
        <ele>123.19</ele>
        <time>2015-10-29T08:38:05Z</time>
      </trkpt>
      <trkpt lat="43.48227" lon="6.33609">
        <ele>123.19</ele>
        <time>2015-10-29T08:38:10Z</time>
      </trkpt>
      <trkpt lat="43.48232" lon="6.33599">
        <ele>123.19</ele>
        <time>2015-10-29T08:38:22Z</time>
      </trkpt>
      <trkpt lat="43.48235" lon="6.33598">
        <ele>123.19</ele>
        <time>2015-10-29T08:38:40Z</time>
      </trkpt>
      <trkpt lat="43.48244" lon="6.33586">
        <ele>123.67</ele>
        <time>2015-10-29T08:38:56Z</time>
      </trkpt>
      <trkpt lat="43.48247" lon="6.33588">
        <ele>123.67</ele>
        <time>2015-10-29T08:39:16Z</time>
      </trkpt>
      <trkpt lat="43.48251" lon="6.33589">
        <ele>124.15</ele>
        <time>2015-10-29T08:39:28Z</time>
      </trkpt>
      <trkpt lat="43.48252" lon="6.33593">
        <ele>123.67</ele>
        <time>2015-10-29T08:39:40Z</time>
      </trkpt>
      <trkpt lat="43.48253" lon="6.33598">
        <ele>124.15</ele>
        <time>2015-10-29T08:40:01Z</time>
      </trkpt>
      <trkpt lat="43.48252" lon="6.33605">
        <ele>125.11</ele>
        <time>2015-10-29T08:40:21Z</time>
      </trkpt>
      <trkpt lat="43.48257" lon="6.33606">
        <ele>127.99</ele>
        <time>2015-10-29T08:40:34Z</time>
      </trkpt>
      <trkpt lat="43.48253" lon="6.33605">
        <ele>127.03</ele>
        <time>2015-10-29T08:40:50Z</time>
      </trkpt>
      <trkpt lat="43.4825" lon="6.33604">
        <ele>124.15</ele>
        <time>2015-10-29T08:41:00Z</time>
      </trkpt>
      <trkpt lat="43.48249" lon="6.33597">
        <ele>124.15</ele>
        <time>2015-10-29T08:41:07Z</time>
      </trkpt>
      <trkpt lat="43.48246" lon="6.33591">
        <ele>124.15</ele>
        <time>2015-10-29T08:41:22Z</time>
      </trkpt>
      <trkpt lat="43.48244" lon="6.33589">
        <ele>124.15</ele>
        <time>2015-10-29T08:41:39Z</time>
      </trkpt>
      <trkpt lat="43.48246" lon="6.336">
        <ele>124.15</ele>
        <time>2015-10-29T08:41:54Z</time>
      </trkpt>
      <trkpt lat="43.48247" lon="6.33603">
        <ele>124.15</ele>
        <time>2015-10-29T08:42:07Z</time>
      </trkpt>
      <trkpt lat="43.48248" lon="6.33604">
        <ele>124.15</ele>
        <time>2015-10-29T08:42:25Z</time>
      </trkpt>
      <trkpt lat="43.48247" lon="6.33604">
        <ele>124.15</ele>
        <time>2015-10-29T08:42:49Z</time>
      </trkpt>
      <trkpt lat="43.48247" lon="6.33604">
        <ele>124.15</ele>
        <time>2015-10-29T08:43:04Z</time>
      </trkpt>
      <trkpt lat="43.48243" lon="6.33614">
        <ele>124.15</ele>
        <time>2015-10-29T08:43:14Z</time>
      </trkpt>
      <trkpt lat="43.48237" lon="6.33629">
        <ele>124.63</ele>
        <time>2015-10-29T08:43:27Z</time>
      </trkpt>
      <trkpt lat="43.48233" lon="6.33641">
        <ele>124.63</ele>
        <time>2015-10-29T08:43:33Z</time>
      </trkpt>
      <trkpt lat="43.48233" lon="6.33645">
        <ele>124.63</ele>
        <time>2015-10-29T08:43:36Z</time>
      </trkpt>
      <trkpt lat="43.48229" lon="6.33663">
        <ele>125.11</ele>
        <time>2015-10-29T08:43:48Z</time>
      </trkpt>
      <trkpt lat="43.48226" lon="6.33668">
        <ele>125.59</ele>
        <time>2015-10-29T08:44:03Z</time>
      </trkpt>
      <trkpt lat="43.48227" lon="6.33667">
        <ele>125.59</ele>
        <time>2015-10-29T08:44:13Z</time>
      </trkpt>
      <trkpt lat="43.48229" lon="6.33671">
        <ele>125.59</ele>
        <time>2015-10-29T08:44:26Z</time>
      </trkpt>
      <trkpt lat="43.48227" lon="6.33674">
        <ele>125.11</ele>
        <time>2015-10-29T08:44:43Z</time>
      </trkpt>
      <trkpt lat="43.48224" lon="6.33682">
        <ele>125.11</ele>
        <time>2015-10-29T08:44:50Z</time>
      </trkpt>
      <trkpt lat="43.48221" lon="6.33704">
        <ele>125.11</ele>
        <time>2015-10-29T08:45:02Z</time>
      </trkpt>
      <trkpt lat="43.4822" lon="6.33711">
        <ele>125.59</ele>
        <time>2015-10-29T08:45:06Z</time>
      </trkpt>
      <trkpt lat="43.48216" lon="6.33719">
        <ele>125.59</ele>
        <time>2015-10-29T08:45:11Z</time>
      </trkpt>
      <trkpt lat="43.48214" lon="6.33724">
        <ele>125.59</ele>
        <time>2015-10-29T08:45:17Z</time>
      </trkpt>
      <trkpt lat="43.48212" lon="6.3373">
        <ele>125.59</ele>
        <time>2015-10-29T08:45:20Z</time>
      </trkpt>
      <trkpt lat="43.4821" lon="6.3374">
        <ele>126.55</ele>
        <time>2015-10-29T08:45:26Z</time>
      </trkpt>
      <trkpt lat="43.4821" lon="6.33745">
        <ele>127.03</ele>
        <time>2015-10-29T08:45:31Z</time>
      </trkpt>
      <trkpt lat="43.48211" lon="6.33751">
        <ele>127.51</ele>
        <time>2015-10-29T08:45:34Z</time>
      </trkpt>
      <trkpt lat="43.48211" lon="6.33752">
        <ele>127.99</ele>
        <time>2015-10-29T08:45:36Z</time>
      </trkpt>
      <trkpt lat="43.48212" lon="6.3376">
        <ele>128.95</ele>
        <time>2015-10-29T08:45:50Z</time>
      </trkpt>
      <trkpt lat="43.48215" lon="6.33764">
        <ele>130.4</ele>
        <time>2015-10-29T08:46:04Z</time>
      </trkpt>
      <trkpt lat="43.48226" lon="6.3377">
        <ele>132.8</ele>
        <time>2015-10-29T08:46:18Z</time>
      </trkpt>
      <trkpt lat="43.48229" lon="6.33769">
        <ele>133.28</ele>
        <time>2015-10-29T08:46:35Z</time>
      </trkpt>
      <trkpt lat="43.4823" lon="6.33773">
        <ele>133.76</ele>
        <time>2015-10-29T08:46:53Z</time>
      </trkpt>
      <trkpt lat="43.48231" lon="6.33775">
        <ele>134.24</ele>
        <time>2015-10-29T08:47:05Z</time>
      </trkpt>
      <trkpt lat="43.48225" lon="6.33782">
        <ele>134.72</ele>
        <time>2015-10-29T08:47:16Z</time>
      </trkpt>
      <trkpt lat="43.48215" lon="6.33784">
        <ele>135.68</ele>
        <time>2015-10-29T08:47:29Z</time>
      </trkpt>
      <trkpt lat="43.48211" lon="6.33784">
        <ele>136.16</ele>
        <time>2015-10-29T08:47:33Z</time>
      </trkpt>
      <trkpt lat="43.48201" lon="6.33785">
        <ele>139.53</ele>
        <time>2015-10-29T08:47:44Z</time>
      </trkpt>
      <trkpt lat="43.48194" lon="6.33788">
        <ele>139.53</ele>
        <time>2015-10-29T08:47:57Z</time>
      </trkpt>
      <trkpt lat="43.4819" lon="6.33789">
        <ele>140.01</ele>
        <time>2015-10-29T08:48:01Z</time>
      </trkpt>
      <trkpt lat="43.48188" lon="6.3379">
        <ele>140.01</ele>
        <time>2015-10-29T08:48:03Z</time>
      </trkpt>
      <trkpt lat="43.48182" lon="6.33798">
        <ele>140.49</ele>
        <time>2015-10-29T08:48:17Z</time>
      </trkpt>
      <trkpt lat="43.48181" lon="6.33801">
        <ele>140.97</ele>
        <time>2015-10-29T08:48:35Z</time>
      </trkpt>
      <trkpt lat="43.48181" lon="6.33801">
        <ele>140.49</ele>
        <time>2015-10-29T08:48:57Z</time>
      </trkpt>
      <trkpt lat="43.48181" lon="6.33801">
        <ele>140.49</ele>
        <time>2015-10-29T08:49:14Z</time>
      </trkpt>
      <trkpt lat="43.48182" lon="6.33801">
        <ele>140.49</ele>
        <time>2015-10-29T08:49:28Z</time>
      </trkpt>
      <trkpt lat="43.48184" lon="6.33802">
        <ele>141.45</ele>
        <time>2015-10-29T08:49:43Z</time>
      </trkpt>
      <trkpt lat="43.4819" lon="6.33806">
        <ele>143.37</ele>
        <time>2015-10-29T08:50:01Z</time>
      </trkpt>
      <trkpt lat="43.48196" lon="6.33808">
        <ele>143.85</ele>
        <time>2015-10-29T08:50:06Z</time>
      </trkpt>
      <trkpt lat="43.48212" lon="6.33817">
        <ele>145.3</ele>
        <time>2015-10-29T08:50:17Z</time>
      </trkpt>
      <trkpt lat="43.48218" lon="6.33824">
        <ele>147.22</ele>
        <time>2015-10-29T08:50:29Z</time>
      </trkpt>
      <trkpt lat="43.48228" lon="6.33839">
        <ele>148.18</ele>
        <time>2015-10-29T08:50:42Z</time>
      </trkpt>
      <trkpt lat="43.48232" lon="6.33852">
        <ele>150.58</ele>
        <time>2015-10-29T08:50:56Z</time>
      </trkpt>
      <trkpt lat="43.48234" lon="6.33858">
        <ele>150.58</ele>
        <time>2015-10-29T08:51:10Z</time>
      </trkpt>
      <trkpt lat="43.48235" lon="6.33869">
        <ele>152.03</ele>
        <time>2015-10-29T08:51:24Z</time>
      </trkpt>
      <trkpt lat="43.48231" lon="6.33878">
        <ele>152.99</ele>
        <time>2015-10-29T08:51:39Z</time>
      </trkpt>
      <trkpt lat="43.48231" lon="6.3388">
        <ele>152.99</ele>
        <time>2015-10-29T08:51:57Z</time>
      </trkpt>
      <trkpt lat="43.48231" lon="6.33886">
        <ele>154.43</ele>
        <time>2015-10-29T08:52:09Z</time>
      </trkpt>
      <trkpt lat="43.48223" lon="6.33889">
        <ele>155.87</ele>
        <time>2015-10-29T08:52:20Z</time>
      </trkpt>
      <trkpt lat="43.48223" lon="6.33889">
        <ele>155.87</ele>
        <time>2015-10-29T08:52:21Z</time>
      </trkpt>
      <trkpt lat="43.48211" lon="6.33881">
        <ele>157.31</ele>
        <time>2015-10-29T08:52:36Z</time>
      </trkpt>
      <trkpt lat="43.48211" lon="6.3388">
        <ele>157.79</ele>
        <time>2015-10-29T08:52:37Z</time>
      </trkpt>
      <trkpt lat="43.48199" lon="6.33877">
        <ele>158.75</ele>
        <time>2015-10-29T08:52:49Z</time>
      </trkpt>
      <trkpt lat="43.48199" lon="6.33879">
        <ele>158.75</ele>
        <time>2015-10-29T08:53:05Z</time>
      </trkpt>
      <trkpt lat="43.48192" lon="6.33877">
        <ele>159.72</ele>
        <time>2015-10-29T08:53:15Z</time>
      </trkpt>
      <trkpt lat="43.48181" lon="6.33876">
        <ele>161.16</ele>
        <time>2015-10-29T08:53:26Z</time>
      </trkpt>
      <trkpt lat="43.48173" lon="6.33879">
        <ele>162.6</ele>
        <time>2015-10-29T08:53:38Z</time>
      </trkpt>
      <trkpt lat="43.48178" lon="6.33879">
        <ele>161.64</ele>
        <time>2015-10-29T08:53:53Z</time>
      </trkpt>
      <trkpt lat="43.48188" lon="6.33875">
        <ele>160.2</ele>
        <time>2015-10-29T08:54:06Z</time>
      </trkpt>
      <trkpt lat="43.482" lon="6.33881">
        <ele>159.24</ele>
        <time>2015-10-29T08:54:18Z</time>
      </trkpt>
      <trkpt lat="43.48203" lon="6.33885">
        <ele>159.24</ele>
        <time>2015-10-29T08:54:32Z</time>
      </trkpt>
      <trkpt lat="43.48206" lon="6.3389">
        <ele>159.24</ele>
        <time>2015-10-29T08:54:44Z</time>
      </trkpt>
      <trkpt lat="43.48207" lon="6.33892">
        <ele>159.24</ele>
        <time>2015-10-29T08:54:52Z</time>
      </trkpt>
      <trkpt lat="43.48209" lon="6.33894">
        <ele>159.24</ele>
        <time>2015-10-29T08:54:54Z</time>
      </trkpt>
      <trkpt lat="43.48211" lon="6.33898">
        <ele>159.24</ele>
        <time>2015-10-29T08:54:57Z</time>
      </trkpt>
      <trkpt lat="43.48215" lon="6.33905">
        <ele>159.24</ele>
        <time>2015-10-29T08:55:03Z</time>
      </trkpt>
      <trkpt lat="43.48217" lon="6.33909">
        <ele>159.24</ele>
        <time>2015-10-29T08:55:06Z</time>
      </trkpt>
      <trkpt lat="43.48217" lon="6.33912">
        <ele>159.24</ele>
        <time>2015-10-29T08:55:08Z</time>
      </trkpt>
      <trkpt lat="43.48224" lon="6.33924">
        <ele>159.72</ele>
        <time>2015-10-29T08:55:21Z</time>
      </trkpt>
      <trkpt lat="43.48225" lon="6.33923">
        <ele>158.27</ele>
        <time>2015-10-29T08:55:35Z</time>
      </trkpt>
      <trkpt lat="43.48226" lon="6.33921">
        <ele>158.75</ele>
        <time>2015-10-29T08:55:57Z</time>
      </trkpt>
      <trkpt lat="43.48227" lon="6.33925">
        <ele>159.72</ele>
        <time>2015-10-29T08:56:10Z</time>
      </trkpt>
      <trkpt lat="43.48227" lon="6.33925">
        <ele>159.72</ele>
        <time>2015-10-29T08:56:22Z</time>
      </trkpt>
      <trkpt lat="43.48225" lon="6.33926">
        <ele>159.72</ele>
        <time>2015-10-29T08:56:37Z</time>
      </trkpt>
      <trkpt lat="43.48227" lon="6.33924">
        <ele>160.2</ele>
        <time>2015-10-29T08:56:53Z</time>
      </trkpt>
      <trkpt lat="43.48234" lon="6.33921">
        <ele>159.24</ele>
        <time>2015-10-29T08:57:01Z</time>
      </trkpt>
      <trkpt lat="43.48249" lon="6.33917">
        <ele>159.24</ele>
        <time>2015-10-29T08:57:10Z</time>
      </trkpt>
      <trkpt lat="43.48255" lon="6.33913">
        <ele>160.68</ele>
        <time>2015-10-29T08:57:18Z</time>
      </trkpt>
      <trkpt lat="43.48266" lon="6.33905">
        <ele>160.68</ele>
        <time>2015-10-29T08:57:31Z</time>
      </trkpt>
      <trkpt lat="43.48277" lon="6.33899">
        <ele>161.64</ele>
        <time>2015-10-29T08:57:45Z</time>
      </trkpt>
      <trkpt lat="43.48297" lon="6.33888">
        <ele>164.04</ele>
        <time>2015-10-29T08:58:02Z</time>
      </trkpt>
      <trkpt lat="43.48305" lon="6.3388">
        <ele>165</ele>
        <time>2015-10-29T08:58:12Z</time>
      </trkpt>
      <trkpt lat="43.48317" lon="6.33871">
        <ele>167.89</ele>
        <time>2015-10-29T08:58:28Z</time>
      </trkpt>
      <trkpt lat="43.48321" lon="6.3387">
        <ele>168.85</ele>
        <time>2015-10-29T08:58:43Z</time>
      </trkpt>
      <trkpt lat="43.48322" lon="6.33866">
        <ele>169.81</ele>
        <time>2015-10-29T08:59:04Z</time>
      </trkpt>
      <trkpt lat="43.48324" lon="6.33862">
        <ele>170.29</ele>
        <time>2015-10-29T08:59:22Z</time>
      </trkpt>
      <trkpt lat="43.48334" lon="6.33852">
        <ele>171.73</ele>
        <time>2015-10-29T08:59:35Z</time>
      </trkpt>
      <trkpt lat="43.48337" lon="6.33852">
        <ele>172.69</ele>
        <time>2015-10-29T08:59:49Z</time>
      </trkpt>
      <trkpt lat="43.48337" lon="6.3385">
        <ele>172.69</ele>
        <time>2015-10-29T09:00:07Z</time>
      </trkpt>
      <trkpt lat="43.48339" lon="6.33847">
        <ele>172.69</ele>
        <time>2015-10-29T09:00:19Z</time>
      </trkpt>
      <trkpt lat="43.48339" lon="6.33844">
        <ele>173.66</ele>
        <time>2015-10-29T09:00:35Z</time>
      </trkpt>
      <trkpt lat="43.48346" lon="6.33841">
        <ele>174.14</ele>
        <time>2015-10-29T09:00:46Z</time>
      </trkpt>
      <trkpt lat="43.48355" lon="6.33837">
        <ele>175.58</ele>
        <time>2015-10-29T09:00:57Z</time>
      </trkpt>
      <trkpt lat="43.48356" lon="6.33834">
        <ele>176.06</ele>
        <time>2015-10-29T09:01:10Z</time>
      </trkpt>
      <trkpt lat="43.48355" lon="6.33826">
        <ele>175.1</ele>
        <time>2015-10-29T09:01:23Z</time>
      </trkpt>
      <trkpt lat="43.48353" lon="6.33824">
        <ele>174.62</ele>
        <time>2015-10-29T09:01:34Z</time>
      </trkpt>
      <trkpt lat="43.48357" lon="6.33816">
        <ele>173.66</ele>
        <time>2015-10-29T09:01:47Z</time>
      </trkpt>
      <trkpt lat="43.48361" lon="6.33798">
        <ele>172.69</ele>
        <time>2015-10-29T09:01:59Z</time>
      </trkpt>
      <trkpt lat="43.48361" lon="6.33786">
        <ele>171.25</ele>
        <time>2015-10-29T09:02:09Z</time>
      </trkpt>
      <trkpt lat="43.48361" lon="6.33778">
        <ele>170.77</ele>
        <time>2015-10-29T09:02:12Z</time>
      </trkpt>
      <trkpt lat="43.48365" lon="6.33765">
        <ele>169.33</ele>
        <time>2015-10-29T09:02:24Z</time>
      </trkpt>
      <trkpt lat="43.48366" lon="6.33763">
        <ele>168.85</ele>
        <time>2015-10-29T09:02:26Z</time>
      </trkpt>
      <trkpt lat="43.48373" lon="6.33741">
        <ele>166.93</ele>
        <time>2015-10-29T09:02:40Z</time>
      </trkpt>
      <trkpt lat="43.48377" lon="6.33729">
        <ele>165.96</ele>
        <time>2015-10-29T09:02:54Z</time>
      </trkpt>
      <trkpt lat="43.4838" lon="6.3372">
        <ele>163.56</ele>
        <time>2015-10-29T09:03:01Z</time>
      </trkpt>
      <trkpt lat="43.48376" lon="6.33707">
        <ele>163.56</ele>
        <time>2015-10-29T09:03:10Z</time>
      </trkpt>
      <trkpt lat="43.48363" lon="6.33692">
        <ele>164.04</ele>
        <time>2015-10-29T09:03:23Z</time>
      </trkpt>
      <trkpt lat="43.48361" lon="6.33681">
        <ele>164.52</ele>
        <time>2015-10-29T09:03:33Z</time>
      </trkpt>
      <trkpt lat="43.48361" lon="6.33683">
        <ele>164.52</ele>
        <time>2015-10-29T09:03:47Z</time>
      </trkpt>
      <trkpt lat="43.4836" lon="6.33685">
        <ele>164.52</ele>
        <time>2015-10-29T09:04:06Z</time>
      </trkpt>
      <trkpt lat="43.48362" lon="6.33678">
        <ele>165.96</ele>
        <time>2015-10-29T09:04:18Z</time>
      </trkpt>
      <trkpt lat="43.48353" lon="6.33661">
        <ele>166.45</ele>
        <time>2015-10-29T09:04:30Z</time>
      </trkpt>
      <trkpt lat="43.48345" lon="6.33658">
        <ele>165.96</ele>
        <time>2015-10-29T09:04:39Z</time>
      </trkpt>
      <trkpt lat="43.48333" lon="6.33657">
        <ele>165.48</ele>
        <time>2015-10-29T09:04:52Z</time>
      </trkpt>
      <trkpt lat="43.48331" lon="6.33657">
        <ele>165</ele>
        <time>2015-10-29T09:05:04Z</time>
      </trkpt>
      <trkpt lat="43.48328" lon="6.33659">
        <ele>164.52</ele>
        <time>2015-10-29T09:05:16Z</time>
      </trkpt>
      <trkpt lat="43.48329" lon="6.33663">
        <ele>164.52</ele>
        <time>2015-10-29T09:05:30Z</time>
      </trkpt>
      <trkpt lat="43.48328" lon="6.33662">
        <ele>164.52</ele>
        <time>2015-10-29T09:05:51Z</time>
      </trkpt>
      <trkpt lat="43.48327" lon="6.33662">
        <ele>164.52</ele>
        <time>2015-10-29T09:06:06Z</time>
      </trkpt>
      <trkpt lat="43.48324" lon="6.33664">
        <ele>164.52</ele>
        <time>2015-10-29T09:06:21Z</time>
      </trkpt>
      <trkpt lat="43.48323" lon="6.33665">
        <ele>164.04</ele>
        <time>2015-10-29T09:06:37Z</time>
      </trkpt>
      <trkpt lat="43.48326" lon="6.3367">
        <ele>163.56</ele>
        <time>2015-10-29T09:06:51Z</time>
      </trkpt>
      <trkpt lat="43.48329" lon="6.33676">
        <ele>163.56</ele>
        <time>2015-10-29T09:07:09Z</time>
      </trkpt>
      <trkpt lat="43.48331" lon="6.33677">
        <ele>164.04</ele>
        <time>2015-10-29T09:07:24Z</time>
      </trkpt>
      <trkpt lat="43.48332" lon="6.33678">
        <ele>164.04</ele>
        <time>2015-10-29T09:07:41Z</time>
      </trkpt>
      <trkpt lat="43.48337" lon="6.33682">
        <ele>163.56</ele>
        <time>2015-10-29T09:07:49Z</time>
      </trkpt>
      <trkpt lat="43.4834" lon="6.33687">
        <ele>162.12</ele>
        <time>2015-10-29T09:08:02Z</time>
      </trkpt>
      <trkpt lat="43.4834" lon="6.33687">
        <ele>162.6</ele>
        <time>2015-10-29T09:08:04Z</time>
      </trkpt>
      <trkpt lat="43.48348" lon="6.33688">
        <ele>163.56</ele>
        <time>2015-10-29T09:08:16Z</time>
      </trkpt>
      <trkpt lat="43.48357" lon="6.33689">
        <ele>164.52</ele>
        <time>2015-10-29T09:08:29Z</time>
      </trkpt>
      <trkpt lat="43.48363" lon="6.33695">
        <ele>164.52</ele>
        <time>2015-10-29T09:08:36Z</time>
      </trkpt>
      <trkpt lat="43.48365" lon="6.33699">
        <ele>164.52</ele>
        <time>2015-10-29T09:08:43Z</time>
      </trkpt>
      <trkpt lat="43.48361" lon="6.33706">
        <ele>164.04</ele>
        <time>2015-10-29T09:08:55Z</time>
      </trkpt>
      <trkpt lat="43.48358" lon="6.33709">
        <ele>164.04</ele>
        <time>2015-10-29T09:09:00Z</time>
      </trkpt>
      <trkpt lat="43.48356" lon="6.33711">
        <ele>163.56</ele>
        <time>2015-10-29T09:09:02Z</time>
      </trkpt>
      <trkpt lat="43.48353" lon="6.33717">
        <ele>163.56</ele>
        <time>2015-10-29T09:09:19Z</time>
      </trkpt>
      <trkpt lat="43.48354" lon="6.33716">
        <ele>164.04</ele>
        <time>2015-10-29T09:09:40Z</time>
      </trkpt>
      <trkpt lat="43.48357" lon="6.33708">
        <ele>164.04</ele>
        <time>2015-10-29T09:09:54Z</time>
      </trkpt>
      <trkpt lat="43.4837" lon="6.33702">
        <ele>163.56</ele>
        <time>2015-10-29T09:10:11Z</time>
      </trkpt>
      <trkpt lat="43.48379" lon="6.33714">
        <ele>165</ele>
        <time>2015-10-29T09:10:24Z</time>
      </trkpt>
      <trkpt lat="43.48377" lon="6.33723">
        <ele>166.93</ele>
        <time>2015-10-29T09:10:33Z</time>
      </trkpt>
      <trkpt lat="43.48372" lon="6.33733">
        <ele>167.89</ele>
        <time>2015-10-29T09:10:43Z</time>
      </trkpt>
      <trkpt lat="43.48367" lon="6.33745">
        <ele>169.33</ele>
        <time>2015-10-29T09:10:56Z</time>
      </trkpt>
      <trkpt lat="43.48366" lon="6.33759">
        <ele>170.77</ele>
        <time>2015-10-29T09:11:07Z</time>
      </trkpt>
      <trkpt lat="43.48366" lon="6.33781">
        <ele>172.21</ele>
        <time>2015-10-29T09:11:21Z</time>
      </trkpt>
      <trkpt lat="43.48363" lon="6.33796">
        <ele>173.66</ele>
        <time>2015-10-29T09:11:32Z</time>
      </trkpt>
      <trkpt lat="43.4836" lon="6.33813">
        <ele>174.14</ele>
        <time>2015-10-29T09:11:47Z</time>
      </trkpt>
      <trkpt lat="43.4836" lon="6.33818">
        <ele>174.62</ele>
        <time>2015-10-29T09:12:07Z</time>
      </trkpt>
      <trkpt lat="43.4836" lon="6.33832">
        <ele>176.06</ele>
        <time>2015-10-29T09:12:20Z</time>
      </trkpt>
      <trkpt lat="43.48361" lon="6.33835">
        <ele>176.54</ele>
        <time>2015-10-29T09:12:35Z</time>
      </trkpt>
      <trkpt lat="43.4836" lon="6.33835">
        <ele>176.54</ele>
        <time>2015-10-29T09:12:56Z</time>
      </trkpt>
      <trkpt lat="43.48359" lon="6.33833">
        <ele>175.1</ele>
        <time>2015-10-29T09:13:10Z</time>
      </trkpt>
      <trkpt lat="43.48358" lon="6.33832">
        <ele>175.1</ele>
        <time>2015-10-29T09:13:32Z</time>
      </trkpt>
      <trkpt lat="43.48363" lon="6.33842">
        <ele>176.54</ele>
        <time>2015-10-29T09:13:48Z</time>
      </trkpt>
      <trkpt lat="43.48366" lon="6.33841">
        <ele>179.42</ele>
        <time>2015-10-29T09:14:02Z</time>
      </trkpt>
      <trkpt lat="43.48371" lon="6.33843">
        <ele>180.38</ele>
        <time>2015-10-29T09:14:18Z</time>
      </trkpt>
      <trkpt lat="43.48379" lon="6.33848">
        <ele>180.38</ele>
        <time>2015-10-29T09:14:30Z</time>
      </trkpt>
      <trkpt lat="43.48384" lon="6.33853">
        <ele>179.9</ele>
        <time>2015-10-29T09:14:43Z</time>
      </trkpt>
      <trkpt lat="43.48389" lon="6.33856">
        <ele>179.9</ele>
        <time>2015-10-29T09:14:54Z</time>
      </trkpt>
      <trkpt lat="43.48392" lon="6.33865">
        <ele>180.87</ele>
        <time>2015-10-29T09:15:05Z</time>
      </trkpt>
      <trkpt lat="43.48392" lon="6.33878">
        <ele>181.83</ele>
        <time>2015-10-29T09:15:18Z</time>
      </trkpt>
      <trkpt lat="43.48394" lon="6.3389">
        <ele>181.83</ele>
        <time>2015-10-29T09:15:28Z</time>
      </trkpt>
      <trkpt lat="43.48401" lon="6.33912">
        <ele>182.79</ele>
        <time>2015-10-29T09:15:41Z</time>
      </trkpt>
      <trkpt lat="43.48405" lon="6.33927">
        <ele>181.83</ele>
        <time>2015-10-29T09:15:50Z</time>
      </trkpt>
      <trkpt lat="43.48413" lon="6.33944">
        <ele>181.35</ele>
        <time>2015-10-29T09:16:03Z</time>
      </trkpt>
      <trkpt lat="43.48414" lon="6.3395">
        <ele>181.35</ele>
        <time>2015-10-29T09:16:07Z</time>
      </trkpt>
      <trkpt lat="43.48418" lon="6.33961">
        <ele>180.87</ele>
        <time>2015-10-29T09:16:21Z</time>
      </trkpt>
      <trkpt lat="43.48421" lon="6.33968">
        <ele>181.35</ele>
        <time>2015-10-29T09:16:29Z</time>
      </trkpt>
      <trkpt lat="43.48418" lon="6.33994">
        <ele>180.87</ele>
        <time>2015-10-29T09:16:44Z</time>
      </trkpt>
      <trkpt lat="43.48414" lon="6.34009">
        <ele>180.38</ele>
        <time>2015-10-29T09:16:57Z</time>
      </trkpt>
      <trkpt lat="43.48413" lon="6.34015">
        <ele>180.38</ele>
        <time>2015-10-29T09:17:13Z</time>
      </trkpt>
      <trkpt lat="43.48411" lon="6.3402">
        <ele>179.9</ele>
        <time>2015-10-29T09:17:34Z</time>
      </trkpt>
      <trkpt lat="43.4841" lon="6.34024">
        <ele>180.38</ele>
        <time>2015-10-29T09:18:01Z</time>
      </trkpt>
      <trkpt lat="43.48408" lon="6.3403">
        <ele>178.94</ele>
        <time>2015-10-29T09:18:19Z</time>
      </trkpt>
      <trkpt lat="43.48409" lon="6.34036">
        <ele>177.98</ele>
        <time>2015-10-29T09:18:33Z</time>
      </trkpt>
      <trkpt lat="43.48409" lon="6.34038">
        <ele>177.98</ele>
        <time>2015-10-29T09:18:49Z</time>
      </trkpt>
      <trkpt lat="43.48408" lon="6.34039">
        <ele>177.5</ele>
        <time>2015-10-29T09:19:04Z</time>
      </trkpt>
      <trkpt lat="43.48408" lon="6.34042">
        <ele>177.02</ele>
        <time>2015-10-29T09:19:21Z</time>
      </trkpt>
      <trkpt lat="43.48407" lon="6.34059">
        <ele>175.1</ele>
        <time>2015-10-29T09:19:32Z</time>
      </trkpt>
      <trkpt lat="43.48406" lon="6.3406">
        <ele>175.1</ele>
        <time>2015-10-29T09:19:33Z</time>
      </trkpt>
      <trkpt lat="43.48399" lon="6.34074">
        <ele>173.66</ele>
        <time>2015-10-29T09:19:45Z</time>
      </trkpt>
      <trkpt lat="43.48392" lon="6.34081">
        <ele>173.17</ele>
        <time>2015-10-29T09:19:58Z</time>
      </trkpt>
      <trkpt lat="43.48391" lon="6.34082">
        <ele>173.17</ele>
        <time>2015-10-29T09:20:00Z</time>
      </trkpt>
      <trkpt lat="43.48386" lon="6.34088">
        <ele>172.69</ele>
        <time>2015-10-29T09:20:05Z</time>
      </trkpt>
      <trkpt lat="43.48369" lon="6.34103">
        <ele>172.21</ele>
        <time>2015-10-29T09:20:18Z</time>
      </trkpt>
      <trkpt lat="43.48362" lon="6.34113">
        <ele>171.73</ele>
        <time>2015-10-29T09:20:30Z</time>
      </trkpt>
      <trkpt lat="43.48361" lon="6.34115">
        <ele>171.73</ele>
        <time>2015-10-29T09:20:35Z</time>
      </trkpt>
      <trkpt lat="43.48352" lon="6.34127">
        <ele>171.73</ele>
        <time>2015-10-29T09:20:47Z</time>
      </trkpt>
      <trkpt lat="43.4834" lon="6.34141">
        <ele>171.25</ele>
        <time>2015-10-29T09:20:59Z</time>
      </trkpt>
      <trkpt lat="43.48339" lon="6.34143">
        <ele>171.25</ele>
        <time>2015-10-29T09:21:01Z</time>
      </trkpt>
      <trkpt lat="43.48327" lon="6.34158">
        <ele>169.81</ele>
        <time>2015-10-29T09:21:14Z</time>
      </trkpt>
      <trkpt lat="43.48314" lon="6.34179">
        <ele>166.93</ele>
        <time>2015-10-29T09:21:27Z</time>
      </trkpt>
      <trkpt lat="43.48302" lon="6.34195">
        <ele>165.96</ele>
        <time>2015-10-29T09:21:41Z</time>
      </trkpt>
      <trkpt lat="43.48292" lon="6.34208">
        <ele>165.96</ele>
        <time>2015-10-29T09:21:53Z</time>
      </trkpt>
      <trkpt lat="43.48285" lon="6.34221">
        <ele>165</ele>
        <time>2015-10-29T09:22:07Z</time>
      </trkpt>
      <trkpt lat="43.48276" lon="6.34241">
        <ele>162.12</ele>
        <time>2015-10-29T09:22:21Z</time>
      </trkpt>
      <trkpt lat="43.48262" lon="6.34254">
        <ele>161.64</ele>
        <time>2015-10-29T09:22:35Z</time>
      </trkpt>
      <trkpt lat="43.48249" lon="6.34264">
        <ele>161.64</ele>
        <time>2015-10-29T09:22:48Z</time>
      </trkpt>
      <trkpt lat="43.48245" lon="6.34266">
        <ele>161.64</ele>
        <time>2015-10-29T09:22:51Z</time>
      </trkpt>
      <trkpt lat="43.48231" lon="6.34282">
        <ele>160.68</ele>
        <time>2015-10-29T09:23:06Z</time>
      </trkpt>
      <trkpt lat="43.48218" lon="6.34294">
        <ele>160.2</ele>
        <time>2015-10-29T09:23:19Z</time>
      </trkpt>
      <trkpt lat="43.48208" lon="6.34302">
        <ele>159.72</ele>
        <time>2015-10-29T09:23:31Z</time>
      </trkpt>
      <trkpt lat="43.4821" lon="6.3431">
        <ele>158.27</ele>
        <time>2015-10-29T09:23:37Z</time>
      </trkpt>
      <trkpt lat="43.48218" lon="6.34326">
        <ele>156.35</ele>
        <time>2015-10-29T09:23:49Z</time>
      </trkpt>
      <trkpt lat="43.48228" lon="6.34344">
        <ele>154.91</ele>
        <time>2015-10-29T09:24:02Z</time>
      </trkpt>
      <trkpt lat="43.48236" lon="6.34355">
        <ele>153.95</ele>
        <time>2015-10-29T09:24:13Z</time>
      </trkpt>
      <trkpt lat="43.48238" lon="6.34358">
        <ele>154.43</ele>
        <time>2015-10-29T09:24:36Z</time>
      </trkpt>
      <trkpt lat="43.48238" lon="6.34358">
        <ele>152.99</ele>
        <time>2015-10-29T09:24:45Z</time>
      </trkpt>
    </trkseg>
  </trk>
</gpx>